Аэропорт: Астана. Астана

ICAO: UACC

METAR:
2019/03/24 18:00
UACC 241800Z 07002MPS 0350 R04/0900N FG VV002 00/00 Q1022 R04/15//65 NOSIG RMK QBB070 QFE735/0980
METAR:
2019/03/24 18:18
TAF UACC 241700Z 2418/2518 VRB02MPS 0600 FG VV002 TX04/2510Z TNM01/2501Z 
      TEMPO 2418/2506 0200 -FZDZ FZFG VV001 
      BECMG 2506/2507 3100 BR FEW004 
     FM250800 16005MPS 9999 FEW008